createdAt,value
2022-10-16T00:00:26.732Z,191.70
2022-10-16T00:01:21.927Z,188.72
2022-10-16T00:02:17.230Z,186.04
2022-10-16T00:03:12.399Z,186.89
2022-10-16T00:04:07.661Z,188.72
2022-10-16T00:05:04.071Z,188.18
2022-10-16T00:05:59.225Z,188.72
2022-10-16T00:06:54.398Z,190.47
2022-10-16T00:07:53.949Z,187.85
2022-10-16T00:08:49.059Z,187.43
2022-10-16T00:09:44.209Z,187.64
2022-10-16T00:10:39.373Z,186.36
2022-10-16T00:11:34.408Z,186.24
2022-10-16T00:12:29.644Z,185.21
2022-10-16T00:13:24.432Z,185.42
2022-10-16T00:14:19.428Z,183.18
2022-10-16T00:15:14.568Z,181.39
2022-10-16T00:16:09.631Z,182.98
2022-10-16T00:17:04.754Z,185.42
2022-10-16T00:17:59.928Z,185.83
2022-10-16T00:18:55.220Z,186.79
2022-10-16T00:19:50.226Z,187.00
2022-10-16T00:20:48.258Z,186.89
2022-10-16T00:21:43.251Z,189.04
2022-10-16T00:22:38.230Z,189.81
2022-10-16T00:23:33.264Z,191.92
2022-10-16T00:24:28.281Z,192.03
2022-10-16T00:25:23.298Z,192.82
2022-10-16T00:26:18.355Z,192.60
2022-10-16T00:27:13.334Z,194.65
2022-10-16T00:28:08.364Z,195.12
2022-10-16T00:29:03.474Z,196.52
2022-10-16T00:30:53.544Z,196.52
2022-10-16T00:31:48.574Z,196.16
2022-10-16T00:32:43.631Z,197.58
2022-10-16T00:33:38.643Z,199.14
2022-10-16T00:34:33.691Z,200.85
2022-10-16T00:35:28.719Z,201.59
2022-10-16T00:36:23.741Z,202.33
2022-10-16T00:37:22.392Z,204.86
2022-10-16T00:38:17.401Z,203.97
2022-10-16T00:39:12.519Z,206.15
2022-10-16T00:40:07.542Z,206.54
2022-10-16T00:41:02.720Z,206.02
2022-10-16T00:41:57.852Z,207.06
2022-10-16T00:42:53.012Z,207.85
2022-10-16T00:43:48.019Z,208.90
2022-10-16T00:44:43.073Z,208.77
2022-10-16T00:45:38.084Z,209.57
2022-10-16T00:46:33.184Z,209.71
2022-10-16T00:47:28.105Z,208.11
2022-10-16T00:48:23.228Z,207.85
2022-10-16T00:49:18.278Z,207.32
2022-10-16T00:50:13.290Z,204.99
2022-10-16T00:51:08.309Z,205.24
2022-10-16T00:52:03.324Z,206.28
2022-10-16T00:52:58.471Z,204.86
2022-10-16T00:53:56.191Z,204.48
2022-10-16T00:54:51.210Z,203.59
2022-10-16T00:55:46.225Z,202.84
2022-10-16T00:56:41.321Z,201.46
2022-10-16T00:57:36.306Z,201.09
2022-10-16T00:58:31.317Z,199.26
2022-10-16T00:59:26.355Z,198.90
2022-10-16T01:00:21.422Z,198.18
2022-10-16T01:01:16.477Z,199.51
2022-10-16T01:02:11.531Z,200.11
2022-10-16T01:03:06.556Z,200.48
2022-10-16T01:04:01.592Z,198.30
2022-10-16T01:04:56.761Z,197.46
2022-10-16T01:05:53.295Z,195.93
2022-10-16T01:06:48.442Z,193.39
2022-10-16T01:07:43.712Z,197.94
2022-10-16T01:08:38.873Z,197.82
2022-10-16T01:09:37.381Z,195.93
2022-10-16T01:10:32.670Z,195.93
2022-10-16T01:11:27.817Z,196.05
2022-10-16T01:12:23.093Z,197.46
2022-10-16T01:13:18.391Z,199.26
2022-10-16T01:14:13.556Z,199.87
2022-10-16T01:15:08.686Z,201.46
2022-10-16T01:16:03.941Z,202.09
2022-10-16T01:16:59.141Z,202.96
2022-10-16T01:17:54.889Z,203.46
2022-10-16T01:18:50.119Z,204.10
2022-10-16T01:19:45.982Z,202.46
2022-10-16T01:20:41.107Z,206.54
2022-10-16T01:21:36.417Z,202.96
2022-10-16T01:22:32.116Z,204.35
2022-10-16T01:23:27.292Z,207.45
2022-10-16T01:24:22.583Z,206.67
2022-10-16T01:25:18.719Z,210.24
2022-10-16T01:26:14.006Z,208.64
2022-10-16T01:27:09.859Z,206.93
2022-10-16T01:28:05.006Z,211.05
2022-10-16T01:29:00.243Z,209.57
2022-10-16T01:29:56.025Z,211.05
2022-10-16T01:30:51.188Z,208.77
2022-10-16T01:31:47.154Z,207.71
2022-10-16T01:32:42.317Z,208.37
2022-10-16T01:33:37.617Z,207.98
2022-10-16T01:34:33.493Z,208.24
2022-10-16T01:35:28.810Z,207.85
2022-10-16T01:36:24.086Z,207.32
2022-10-16T01:37:20.484Z,208.51
2022-10-16T01:38:15.785Z,210.24
2022-10-16T01:39:11.639Z,206.54
2022-10-16T01:40:06.913Z,204.73
2022-10-16T01:41:02.209Z,208.64
2022-10-16T01:41:57.935Z,208.11
2022-10-16T01:42:53.259Z,208.64
2022-10-16T01:43:48.996Z,205.37
2022-10-16T01:44:44.129Z,206.80
2022-10-16T01:45:39.569Z,208.11
2022-10-16T01:46:35.300Z,208.24
2022-10-16T01:47:30.579Z,209.57
2022-10-16T01:48:25.786Z,212.01
2022-10-16T01:49:22.135Z,208.64
2022-10-16T01:50:17.487Z,211.60
2022-10-16T01:51:13.200Z,208.90
2022-10-16T01:52:08.468Z,209.71
2022-10-16T01:53:03.663Z,211.05
2022-10-16T01:53:59.399Z,209.17
2022-10-16T01:54:54.587Z,210.51
2022-10-16T01:55:50.419Z,209.30
2022-10-16T01:56:45.693Z,210.78
2022-10-16T01:57:40.865Z,214.79
2022-10-16T01:58:36.724Z,212.28
2022-10-16T01:59:31.911Z,213.80
2022-10-16T02:00:27.170Z,218.21
2022-10-16T02:01:23.591Z,213.80
2022-10-16T02:02:18.890Z,218.65
2022-10-16T02:03:14.724Z,215.49
2022-10-16T02:04:09.884Z,216.91
2022-10-16T02:05:05.047Z,216.63
2022-10-16T02:06:00.958Z,217.63
2022-10-16T02:06:56.125Z,219.82
2022-10-16T02:07:52.010Z,218.50
2022-10-16T02:08:47.026Z,220.56
2022-10-16T02:09:42.351Z,218.21
2022-10-16T02:10:38.083Z,218.65
2022-10-16T02:11:33.384Z,222.35
2022-10-16T02:12:28.755Z,218.94
2022-10-16T02:13:24.990Z,217.49
2022-10-16T02:14:20.300Z,220.12
2022-10-16T02:15:16.040Z,216.49
2022-10-16T02:16:11.309Z,219.23
2022-10-16T02:17:06.611Z,216.49
2022-10-16T02:18:01.652Z,216.91
2022-10-16T02:18:58.032Z,219.97
2022-10-16T02:19:53.052Z,218.36
2022-10-16T02:20:48.362Z,217.63
2022-10-16T02:21:44.209Z,216.91
2022-10-16T02:22:39.506Z,216.20
2022-10-16T02:23:34.935Z,210.38
2022-10-16T02:24:30.942Z,209.44
2022-10-16T02:25:26.216Z,212.70
2022-10-16T02:26:22.076Z,209.57
2022-10-16T02:27:17.317Z,209.17
2022-10-16T02:28:12.635Z,211.74
2022-10-16T02:29:08.236Z,208.24
2022-10-16T02:30:03.520Z,206.02
2022-10-16T02:30:59.371Z,204.35
2022-10-16T02:31:54.625Z,203.72
2022-10-16T02:32:50.168Z,205.37
2022-10-16T02:33:45.787Z,203.97
2022-10-16T02:34:41.044Z,208.90
2022-10-16T02:35:36.216Z,207.45
2022-10-16T02:36:31.479Z,211.05
2022-10-16T02:37:26.766Z,207.32
2022-10-16T02:38:21.940Z,210.78
2022-10-16T02:39:17.094Z,211.74
2022-10-16T02:40:12.969Z,212.42
2022-10-16T02:41:08.244Z,210.51
2022-10-16T02:42:03.544Z,211.87
2022-10-16T02:42:59.405Z,212.70
2022-10-16T02:43:54.670Z,215.21
2022-10-16T02:44:49.979Z,217.20
2022-10-16T02:45:45.147Z,217.20
2022-10-16T02:46:40.163Z,214.36
2022-10-16T02:47:35.193Z,216.63
2022-10-16T02:48:30.226Z,220.41
2022-10-16T02:49:25.229Z,221.75
2022-10-16T02:50:20.286Z,217.49
2022-10-16T02:51:15.287Z,218.50
2022-10-16T02:52:10.449Z,220.56
2022-10-16T02:53:05.338Z,223.41
2022-10-16T02:54:02.129Z,218.65
2022-10-16T02:54:57.436Z,218.79
2022-10-16T02:55:53.277Z,220.71
2022-10-16T02:56:48.547Z,222.96
2022-10-16T02:57:43.756Z,222.50
2022-10-16T02:58:39.473Z,224.79
2022-10-16T02:59:34.660Z,225.56
2022-10-16T03:00:30.505Z,224.18
2022-10-16T03:01:25.747Z,223.87
2022-10-16T03:02:21.229Z,223.26
2022-10-16T03:03:16.928Z,225.87
2022-10-16T03:04:12.112Z,224.64
2022-10-16T03:05:07.431Z,225.72
2022-10-16T03:06:03.723Z,223.57
2022-10-16T03:06:59.014Z,226.34
2022-10-16T03:07:54.873Z,222.20
2022-10-16T03:08:50.032Z,223.41
2022-10-16T03:09:45.208Z,223.11
2022-10-16T03:10:40.942Z,222.81
2022-10-16T03:11:36.237Z,225.25
2022-10-16T03:12:32.217Z,220.26
2022-10-16T03:13:27.281Z,220.12
2022-10-16T03:14:22.479Z,221.45
2022-10-16T03:15:18.208Z,220.41
2022-10-16T03:16:13.349Z,223.11
2022-10-16T03:17:08.619Z,218.79
2022-10-16T03:18:05.000Z,222.05
2022-10-16T03:19:00.271Z,221.75
2022-10-16T03:19:56.133Z,218.79
2022-10-16T03:20:51.387Z,219.38
2022-10-16T03:21:46.698Z,219.97
2022-10-16T03:22:42.335Z,221.90
2022-10-16T03:23:37.632Z,218.79
2022-10-16T03:24:33.466Z,222.50
2022-10-16T03:25:28.750Z,218.36
2022-10-16T03:26:24.058Z,219.82
2022-10-16T03:27:19.777Z,220.41
2022-10-16T03:28:15.074Z,219.53
2022-10-16T03:29:10.228Z,221.45
2022-10-16T03:30:06.754Z,221.30
2022-10-16T03:31:02.074Z,220.41
2022-10-16T03:31:57.826Z,220.12
2022-10-16T03:32:53.081Z,220.71
2022-10-16T03:33:48.255Z,222.20
2022-10-16T03:34:44.148Z,221.75
2022-10-16T03:35:39.341Z,221.75
2022-10-16T03:36:35.146Z,222.35
2022-10-16T03:37:30.409Z,220.56
2022-10-16T03:38:25.587Z,222.20
2022-10-16T03:39:21.341Z,223.26
2022-10-16T03:40:16.505Z,222.20
2022-10-16T03:41:11.765Z,224.33
2022-10-16T03:42:08.171Z,223.87
2022-10-16T03:43:03.513Z,224.33
2022-10-16T03:43:59.254Z,224.18
2022-10-16T03:44:54.438Z,224.95
2022-10-16T03:45:49.593Z,225.25
2022-10-16T03:46:45.458Z,224.64
2022-10-16T03:47:40.746Z,225.56
2022-10-16T03:48:36.786Z,225.87
2022-10-16T03:49:31.816Z,226.03
2022-10-16T03:50:27.230Z,226.34
2022-10-16T03:51:23.104Z,225.72
2022-10-16T03:53:13.699Z,224.02
2022-10-16T03:54:08.909Z,218.79
2022-10-16T03:55:04.056Z,221.30
2022-10-16T03:55:59.208Z,223.41
2022-10-16T03:56:55.736Z,222.81
2022-10-16T03:57:50.894Z,224.33
2022-10-16T03:58:46.794Z,223.87
2022-10-16T03:59:42.025Z,224.48
2022-10-16T04:00:37.580Z,224.48
2022-10-16T04:01:33.443Z,224.33
2022-10-16T04:02:28.608Z,226.18
2022-10-16T04:03:24.481Z,225.87
2022-10-16T04:04:19.602Z,227.60
2022-10-16T04:05:15.032Z,226.65
2022-10-16T04:06:10.791Z,226.50
2022-10-16T04:07:06.080Z,227.60
2022-10-16T04:08:01.238Z,228.71
2022-10-16T04:08:57.781Z,226.50
2022-10-16T04:09:52.984Z,227.76
2022-10-16T04:10:48.707Z,228.55
2022-10-16T04:11:43.858Z,226.97
2022-10-16T04:12:38.999Z,227.91
2022-10-16T04:13:34.293Z,228.71
2022-10-16T04:14:29.673Z,229.35
2022-10-16T04:15:24.713Z,229.35
2022-10-16T04:16:19.896Z,229.83
2022-10-16T04:17:15.771Z,229.03
2022-10-16T04:18:10.931Z,227.60
2022-10-16T04:19:06.358Z,226.18
2022-10-16T04:20:01.937Z,226.81
2022-10-16T04:20:57.222Z,227.28
2022-10-16T04:21:52.420Z,227.91
2022-10-16T04:22:47.693Z,228.39
2022-10-16T04:23:42.733Z,225.87
2022-10-16T04:24:37.772Z,225.87
2022-10-16T04:25:32.799Z,226.03
2022-10-16T04:26:27.797Z,225.10
2022-10-16T04:27:22.966Z,223.11
2022-10-16T04:28:17.859Z,223.72
2022-10-16T04:29:12.900Z,225.41
2022-10-16T04:30:07.897Z,225.10
2022-10-16T04:31:02.914Z,222.96
2022-10-16T04:31:57.948Z,223.87
2022-10-16T04:32:53.042Z,224.18
2022-10-16T04:33:48.101Z,224.33
2022-10-16T04:34:43.121Z,222.65
2022-10-16T04:35:38.248Z,223.26
2022-10-16T04:36:33.305Z,223.41
2022-10-16T04:37:28.658Z,224.79
2022-10-16T04:38:23.342Z,225.72
2022-10-16T04:39:18.364Z,225.72
2022-10-16T04:40:13.356Z,225.56
2022-10-16T04:41:08.435Z,225.87
2022-10-16T04:42:03.457Z,226.18
2022-10-16T04:42:58.532Z,226.03
2022-10-16T04:43:57.733Z,224.18
2022-10-16T04:44:52.750Z,224.79
2022-10-16T04:45:47.835Z,225.10
2022-10-16T04:46:42.880Z,225.72
2022-10-16T04:47:37.938Z,226.03
2022-10-16T04:48:33.051Z,224.02
2022-10-16T04:49:28.089Z,224.02
2022-10-16T04:50:23.341Z,223.41
2022-10-16T04:51:18.520Z,224.33
2022-10-16T04:52:13.693Z,223.72
2022-10-16T04:53:08.753Z,223.72
2022-10-16T04:54:03.814Z,224.64
2022-10-16T04:54:58.874Z,223.41
2022-10-16T04:55:53.861Z,223.57
2022-10-16T04:56:48.987Z,223.41
2022-10-16T04:57:44.672Z,222.96
2022-10-16T04:58:39.887Z,222.50
2022-10-16T04:59:35.591Z,221.60
2022-10-16T05:00:30.897Z,222.05
2022-10-16T05:01:26.075Z,223.41
2022-10-16T05:02:21.943Z,219.53
2022-10-16T05:03:17.262Z,218.50
2022-10-16T05:04:12.357Z,219.23
2022-10-16T05:05:08.934Z,219.82
2022-10-16T05:06:04.098Z,220.71
2022-10-16T05:06:59.939Z,222.05
2022-10-16T05:07:55.099Z,223.26
2022-10-16T05:08:50.256Z,224.33
2022-10-16T05:09:46.133Z,226.03
2022-10-16T05:10:41.317Z,225.41
2022-10-16T05:11:37.164Z,225.56
2022-10-16T05:12:32.318Z,226.50
2022-10-16T05:13:27.616Z,227.12
2022-10-16T05:14:23.483Z,225.56
2022-10-16T05:15:18.800Z,225.87
2022-10-16T05:16:14.094Z,226.18
2022-10-16T05:17:10.230Z,227.44
2022-10-16T05:18:05.519Z,227.28
2022-10-16T05:19:57.594Z,228.23
2022-10-16T05:20:51.844Z,229.19
2022-10-16T05:21:48.297Z,228.71
2022-10-16T05:22:43.524Z,229.83
2022-10-16T05:23:39.299Z,231.45
2022-10-16T05:24:34.661Z,233.76
2022-10-16T05:25:29.731Z,232.10
2022-10-16T05:26:24.800Z,234.60
2022-10-16T05:27:19.876Z,234.43
2022-10-16T05:28:14.867Z,236.62
2022-10-16T05:29:09.947Z,237.65
2022-10-16T05:30:07.386Z,238.52
2022-10-16T05:31:00.028Z,236.80
2022-10-16T05:31:55.204Z,237.65
2022-10-16T05:32:50.408Z,238.69
2022-10-16T05:33:45.714Z,238.69
2022-10-16T05:34:40.666Z,239.04
2022-10-16T05:35:35.747Z,240.26
2022-10-16T05:36:30.864Z,240.62
2022-10-16T05:37:26.032Z,241.32
2022-10-16T05:38:21.222Z,241.50
2022-10-16T05:39:16.256Z,242.21
2022-10-16T05:40:11.260Z,240.79
2022-10-16T05:41:06.368Z,240.97
2022-10-16T05:42:01.479Z,240.79
2022-10-16T05:42:58.793Z,239.04
2022-10-16T05:43:54.092Z,238.00
2022-10-16T05:44:49.388Z,238.34
2022-10-16T05:45:44.708Z,239.74
2022-10-16T05:46:39.762Z,236.62
2022-10-16T05:47:34.776Z,237.31
2022-10-16T05:48:29.881Z,236.62
2022-10-16T05:49:24.960Z,235.60
2022-10-16T05:50:20.072Z,234.60
2022-10-16T05:51:15.131Z,233.43
2022-10-16T05:52:10.240Z,234.26
2022-10-16T05:53:05.283Z,231.45
2022-10-16T05:54:00.350Z,231.12
2022-10-16T05:54:55.500Z,232.93
2022-10-16T05:55:50.481Z,232.76
2022-10-16T05:56:45.554Z,228.71
2022-10-16T05:57:40.588Z,226.97
2022-10-16T05:58:35.911Z,227.28
2022-10-16T05:59:31.109Z,225.56
2022-10-16T06:00:26.155Z,222.50
2022-10-16T06:01:22.943Z,223.87
2022-10-16T06:02:17.848Z,224.33
2022-10-16T06:03:12.900Z,223.26
2022-10-16T06:04:07.953Z,223.57
2022-10-16T06:05:03.026Z,224.95
2022-10-16T06:05:58.076Z,226.97
2022-10-16T06:06:53.125Z,228.39
2022-10-16T06:07:49.945Z,227.76
2022-10-16T06:08:45.264Z,229.67
2022-10-16T06:09:40.577Z,230.48
2022-10-16T06:10:36.040Z,230.15
2022-10-16T06:11:31.666Z,229.03
2022-10-16T06:12:27.012Z,227.76
2022-10-16T06:13:22.398Z,225.56
2022-10-16T06:14:17.797Z,226.03
2022-10-16T06:15:13.125Z,227.28
2022-10-16T06:16:08.503Z,227.60
2022-10-16T06:17:03.864Z,226.34
2022-10-16T06:17:59.248Z,225.87
2022-10-16T06:18:54.611Z,224.95
2022-10-16T06:19:50.036Z,224.79
2022-10-16T06:20:45.595Z,224.95
2022-10-16T06:21:40.895Z,223.72
2022-10-16T06:22:36.318Z,224.79
2022-10-16T06:23:31.854Z,221.90
2022-10-16T06:24:26.941Z,219.82
2022-10-16T06:25:21.941Z,219.23
2022-10-16T06:26:16.980Z,218.50
2022-10-16T06:27:11.973Z,219.38
2022-10-16T06:28:06.966Z,217.49
2022-10-16T06:29:02.092Z,215.77
2022-10-16T06:29:57.267Z,214.22
2022-10-16T06:30:52.285Z,213.53
2022-10-16T06:31:47.322Z,212.42
2022-10-16T06:32:42.318Z,211.05
2022-10-16T06:33:37.359Z,207.32
2022-10-16T06:34:32.385Z,207.71
2022-10-16T06:35:27.456Z,208.37
2022-10-16T06:36:22.493Z,209.84
2022-10-16T06:37:18.316Z,205.76
2022-10-16T06:38:13.878Z,206.80
2022-10-16T06:39:10.788Z,206.54
2022-10-16T06:40:06.080Z,209.71
2022-10-16T06:41:01.611Z,204.73
2022-10-16T06:41:56.948Z,206.41
2022-10-16T06:42:52.334Z,207.85
2022-10-16T06:43:47.778Z,206.02
2022-10-16T06:44:43.205Z,206.93
2022-10-16T06:45:38.621Z,208.11
2022-10-16T06:46:35.150Z,200.85
2022-10-16T06:47:30.557Z,201.46
2022-10-16T06:48:25.991Z,204.61
2022-10-16T06:49:21.444Z,202.96
2022-10-16T06:50:17.121Z,207.32
2022-10-16T06:51:12.542Z,208.64
2022-10-16T06:52:08.012Z,208.11
2022-10-16T06:53:03.613Z,210.11
2022-10-16T06:54:03.686Z,211.87
2022-10-16T06:54:54.489Z,210.78
2022-10-16T06:55:50.025Z,211.19
2022-10-16T06:56:45.449Z,209.57
2022-10-16T06:57:40.899Z,209.44
2022-10-16T06:58:36.309Z,208.37
2022-10-16T06:59:31.429Z,206.67
2022-10-16T07:00:26.461Z,207.85
2022-10-16T07:01:21.456Z,209.04
2022-10-16T07:02:16.635Z,208.37
2022-10-16T07:03:11.650Z,207.58
2022-10-16T07:04:06.658Z,206.93
2022-10-16T07:05:01.708Z,206.02
2022-10-16T07:05:58.728Z,203.09
2022-10-16T07:06:53.756Z,204.10
2022-10-16T07:07:48.794Z,203.72
2022-10-16T07:08:43.787Z,203.21
2022-10-16T07:09:38.784Z,203.34
2022-10-16T07:10:33.838Z,199.99
2022-10-16T07:11:28.982Z,196.28
2022-10-16T07:12:24.243Z,194.19
2022-10-16T07:13:19.136Z,193.73
2022-10-16T07:14:14.141Z,191.47
2022-10-16T07:15:09.162Z,191.47
2022-10-16T07:16:04.192Z,190.47
2022-10-16T07:16:59.362Z,190.69
2022-10-16T07:17:54.662Z,189.70
2022-10-16T07:18:50.073Z,190.25
2022-10-16T07:19:45.567Z,190.69
2022-10-16T07:20:41.114Z,190.03
2022-10-16T07:21:36.994Z,190.47
2022-10-16T07:22:31.991Z,191.58
2022-10-16T07:23:27.539Z,189.81
2022-10-16T07:24:22.949Z,188.39
2022-10-16T07:25:18.381Z,187.21
2022-10-16T07:26:13.789Z,188.50
2022-10-16T07:27:09.210Z,188.07
2022-10-16T07:28:04.782Z,186.89
2022-10-16T07:29:00.787Z,185.52
2022-10-16T07:29:56.220Z,185.01
2022-10-16T07:30:51.784Z,184.39
2022-10-16T07:31:47.235Z,183.38
2022-10-16T07:32:42.655Z,181.78
2022-10-16T07:33:38.090Z,182.18
2022-10-16T07:34:33.530Z,182.58
2022-10-16T07:35:29.099Z,180.80
2022-10-16T07:36:24.508Z,176.96
2022-10-16T07:37:19.931Z,174.19
2022-10-16T07:38:14.953Z,174.01
2022-10-16T07:39:09.936Z,174.55
2022-10-16T07:40:04.947Z,176.21
2022-10-16T07:41:00.002Z,176.96
2022-10-16T07:41:55.015Z,178.86
2022-10-16T07:42:50.007Z,181.39
2022-10-16T07:43:45.066Z,181.39
2022-10-16T07:44:40.073Z,180.60
2022-10-16T07:45:35.116Z,181.78
2022-10-16T07:46:30.121Z,182.58
2022-10-16T07:47:25.551Z,183.78
2022-10-16T07:48:20.253Z,182.98
2022-10-16T07:49:15.405Z,182.18
2022-10-16T07:50:10.260Z,181.58
2022-10-16T07:51:05.283Z,181.98
2022-10-16T07:52:00.321Z,182.18
2022-10-16T07:52:55.355Z,180.99
2022-10-16T07:53:50.359Z,182.38
2022-10-16T07:54:45.505Z,182.38
2022-10-16T07:55:40.408Z,181.98
2022-10-16T07:56:36.744Z,181.39
2022-10-16T07:57:30.440Z,180.80
2022-10-16T07:58:25.448Z,180.99
2022-10-16T07:59:20.622Z,179.82
2022-10-16T08:00:15.613Z,178.29
2022-10-16T08:01:10.677Z,177.15
2022-10-16T08:02:06.790Z,174.19
2022-10-16T08:03:02.221Z,172.57
2022-10-16T08:03:57.844Z,170.11
2022-10-16T08:04:53.170Z,168.90
2022-10-16T08:05:48.567Z,168.05
2022-10-16T08:06:44.035Z,168.56
2022-10-16T08:07:39.463Z,167.04
2022-10-16T08:08:34.890Z,166.88
2022-10-16T08:09:30.319Z,167.04
2022-10-16T08:10:25.789Z,166.21
2022-10-16T08:11:22.284Z,165.06
2022-10-16T08:12:17.709Z,165.88
2022-10-16T08:13:13.137Z,163.28
2022-10-16T08:14:08.576Z,162.49
2022-10-16T08:15:04.164Z,159.08
2022-10-16T08:15:59.616Z,154.66
2022-10-16T08:16:55.039Z,154.94
2022-10-16T08:17:50.079Z,153.38
2022-10-16T08:18:45.107Z,155.38
2022-10-16T08:19:40.163Z,155.96
2022-10-16T08:20:35.190Z,156.84
2022-10-16T08:21:30.213Z,156.99
2022-10-16T08:22:25.267Z,157.13
2022-10-16T08:23:20.289Z,157.58
2022-10-16T08:24:15.322Z,157.13
2022-10-16T08:25:10.337Z,159.08
2022-10-16T08:26:05.361Z,158.18
2022-10-16T08:27:00.409Z,158.18
2022-10-16T08:27:55.419Z,157.43
2022-10-16T08:28:50.536Z,158.32
2022-10-16T08:29:45.728Z,155.38
2022-10-16T08:30:41.166Z,156.10
2022-10-16T08:31:36.631Z,155.96
2022-10-16T08:32:32.419Z,157.43
2022-10-16T08:33:27.628Z,156.99
2022-10-16T08:34:23.076Z,157.58
2022-10-16T08:35:18.111Z,156.84
2022-10-16T08:36:13.110Z,156.84
2022-10-16T08:37:08.137Z,158.18
2022-10-16T08:38:04.630Z,158.03
2022-10-16T08:38:59.643Z,158.93
2022-10-16T08:39:54.669Z,157.88
2022-10-16T08:40:52.724Z,158.03
2022-10-16T08:41:44.707Z,157.13
2022-10-16T08:42:39.712Z,156.84
2022-10-16T08:43:34.728Z,155.81
2022-10-16T08:44:29.741Z,154.66
2022-10-16T08:45:24.911Z,154.23
2022-10-16T08:46:19.767Z,154.66
2022-10-16T08:47:14.884Z,152.96
2022-10-16T08:48:11.395Z,152.40
2022-10-16T08:49:06.835Z,152.40
2022-10-16T08:50:02.283Z,151.98
2022-10-16T08:50:57.841Z,152.54
2022-10-16T08:51:53.271Z,151.57
2022-10-16T08:52:48.710Z,151.98
2022-10-16T08:53:44.145Z,150.47
2022-10-16T08:54:39.574Z,150.47
2022-10-16T08:55:35.000Z,150.61
2022-10-16T08:56:30.408Z,150.34
2022-10-16T08:57:25.998Z,148.86
2022-10-16T08:58:21.422Z,149.13
2022-10-16T08:59:16.838Z,146.77
2022-10-16T09:00:12.323Z,147.42
2022-10-16T09:01:11.629Z,145.24
2022-10-16T09:02:06.928Z,144.73
2022-10-16T09:03:02.490Z,145.87
2022-10-16T09:03:57.798Z,144.23
2022-10-16T09:04:56.704Z,144.36
2022-10-16T09:05:48.681Z,143.86
2022-10-16T09:06:44.238Z,140.82
2022-10-16T09:07:39.668Z,139.06
2022-10-16T09:08:35.098Z,138.37
2022-10-16T09:09:30.678Z,137.23
2022-10-16T09:10:26.090Z,135.67
2022-10-16T09:11:21.527Z,135.45
2022-10-16T09:12:16.958Z,134.14
2022-10-16T09:13:12.375Z,134.47
2022-10-16T09:14:07.913Z,133.07
2022-10-16T09:15:02.957Z,129.06
2022-10-16T09:15:57.961Z,127.39
2022-10-16T09:16:53.125Z,127.58
2022-10-16T09:17:48.144Z,128.07
2022-10-16T09:18:43.324Z,126.23
2022-10-16T09:19:38.357Z,123.79
2022-10-16T09:20:33.390Z,121.99
2022-10-16T09:21:28.426Z,120.84
2022-10-16T09:22:23.443Z,120.14
2022-10-16T09:23:18.462Z,119.62
2022-10-16T09:24:14.992Z,118.52
2022-10-16T09:25:10.229Z,119.88
2022-10-16T09:26:05.221Z,121.10
2022-10-16T09:27:00.305Z,121.10
2022-10-16T09:27:56.323Z,120.05
2022-10-16T09:28:51.906Z,119.71
2022-10-16T09:29:47.400Z,119.54
2022-10-16T09:30:42.884Z,119.71
2022-10-16T09:31:38.409Z,117.93
2022-10-16T09:32:33.890Z,116.94
2022-10-16T09:33:28.950Z,117.43
2022-10-16T09:34:24.097Z,116.53
2022-10-16T09:35:19.202Z,116.29
2022-10-16T09:36:14.272Z,115.48
2022-10-16T09:37:09.355Z,114.77
2022-10-16T09:38:04.424Z,115.72
2022-10-16T09:38:59.680Z,117.27
2022-10-16T09:39:54.622Z,118.86
2022-10-16T09:40:58.833Z,118.69
2022-10-16T09:41:45.792Z,117.52
2022-10-16T09:42:39.804Z,117.43
2022-10-16T09:43:34.888Z,115.72
2022-10-16T09:44:30.039Z,115.32
2022-10-16T09:45:25.508Z,113.06
2022-10-16T09:46:21.270Z,113.75
2022-10-16T09:47:16.625Z,116.21
2022-10-16T09:48:12.108Z,115.89
2022-10-16T09:49:07.615Z,116.53
2022-10-16T09:50:03.154Z,117.52
2022-10-16T09:50:58.737Z,118.52
2022-10-16T09:51:54.260Z,121.63
2022-10-16T09:52:49.755Z,121.19
2022-10-16T09:53:45.472Z,121.63
2022-10-16T09:54:40.873Z,121.54
2022-10-16T09:55:36.284Z,121.54
2022-10-16T09:56:31.390Z,121.99
2022-10-16T09:57:26.602Z,120.84
2022-10-16T09:58:21.477Z,121.54
2022-10-16T09:59:16.477Z,121.10
2022-10-16T10:00:11.596Z,120.57
2022-10-16T10:01:06.682Z,116.53
2022-10-16T10:02:01.794Z,113.29
2022-10-16T10:02:58.872Z,112.22
2022-10-16T10:03:53.937Z,112.22
2022-10-16T10:04:49.046Z,113.21
2022-10-16T10:05:44.163Z,113.91
2022-10-16T10:06:39.226Z,114.53
2022-10-16T10:07:34.330Z,116.13
2022-10-16T10:08:29.571Z,114.61
2022-10-16T10:09:24.657Z,113.91
2022-10-16T10:10:19.766Z,113.06
2022-10-16T10:11:16.184Z,112.68
2022-10-16T10:12:10.789Z,115.72
2022-10-16T10:13:06.292Z,120.05
2022-10-16T10:14:01.898Z,123.43
2022-10-16T10:14:57.387Z,124.07
2022-10-16T10:15:52.502Z,123.98
2022-10-16T10:16:47.557Z,123.79
2022-10-16T10:17:42.661Z,125.19
2022-10-16T10:18:37.698Z,124.81
2022-10-16T10:19:32.936Z,125.94
2022-10-16T10:20:27.865Z,126.61
2022-10-16T10:21:22.937Z,125.94
2022-10-16T10:22:18.039Z,125.38
2022-10-16T10:23:13.104Z,125.66
2022-10-16T10:24:08.289Z,126.13
2022-10-16T10:25:03.400Z,124.63
2022-10-16T10:25:58.606Z,124.35
2022-10-16T10:26:53.686Z,123.06
2022-10-16T10:27:48.762Z,126.81
2022-10-16T10:28:43.886Z,126.52
2022-10-16T10:29:38.862Z,126.71
2022-10-16T10:30:34.063Z,125.09
2022-10-16T10:31:29.134Z,126.23
2022-10-16T10:32:26.622Z,125.56
2022-10-16T10:33:21.852Z,127.58
2022-10-16T10:34:17.352Z,128.17
2022-10-16T10:35:12.852Z,129.36
2022-10-16T10:36:08.289Z,128.17
2022-10-16T10:37:03.912Z,127.09
2022-10-16T10:37:59.442Z,127.29
2022-10-16T10:38:55.019Z,126.61
2022-10-16T10:39:50.484Z,128.17
2022-10-16T10:40:46.015Z,127.78
2022-10-16T10:41:41.491Z,127.48
2022-10-16T10:42:37.102Z,128.07
2022-10-16T10:43:32.599Z,129.66
2022-10-16T10:44:28.070Z,129.96
2022-10-16T10:45:23.709Z,130.78
2022-10-16T10:46:18.815Z,130.27
2022-10-16T10:47:13.868Z,129.96
2022-10-16T10:48:08.929Z,129.56
2022-10-16T10:49:04.010Z,131.92
2022-10-16T10:49:59.089Z,132.55
2022-10-16T10:50:54.196Z,131.19
2022-10-16T10:51:49.275Z,131.19
2022-10-16T10:52:44.339Z,132.34
2022-10-16T10:53:39.549Z,131.92
2022-10-16T10:54:34.634Z,131.19
2022-10-16T10:55:30.660Z,128.27
2022-10-16T10:56:25.705Z,121.72
2022-10-16T10:57:20.777Z,122.43
2022-10-16T10:58:15.981Z,123.34
2022-10-16T10:59:11.754Z,121.90
2022-10-16T11:00:07.198Z,125.75
2022-10-16T11:01:02.818Z,126.61
2022-10-16T11:01:58.165Z,128.46
2022-10-16T11:02:53.794Z,125.66
2022-10-16T11:03:49.036Z,125.94
2022-10-16T11:04:44.487Z,124.72
2022-10-16T11:05:39.948Z,121.45
2022-10-16T11:06:35.442Z,118.27
2022-10-16T11:07:30.891Z,116.37
2022-10-16T11:08:26.425Z,115.64
2022-10-16T11:09:21.874Z,114.38
2022-10-16T11:10:17.348Z,113.52
2022-10-16T11:11:12.854Z,111.62
2022-10-16T11:12:07.929Z,113.83
2022-10-16T11:13:03.032Z,114.46
2022-10-16T11:13:58.084Z,116.21
2022-10-16T11:14:53.174Z,113.52
2022-10-16T11:16:43.272Z,111.18
2022-10-16T11:17:38.337Z,112.15
2022-10-16T11:18:35.997Z,112.00
2022-10-16T11:19:31.116Z,110.95
2022-10-16T11:20:26.201Z,111.55
2022-10-16T11:21:21.303Z,113.37
2022-10-16T11:22:17.300Z,114.22
2022-10-16T11:23:12.812Z,115.25
2022-10-16T11:24:08.459Z,114.46
2022-10-16T11:25:04.050Z,110.00
2022-10-16T11:25:59.363Z,109.28
2022-10-16T11:26:55.009Z,110.51
2022-10-16T11:27:50.527Z,115.09
2022-10-16T11:28:46.060Z,117.85
2022-10-16T11:29:41.433Z,121.10
2022-10-16T11:30:36.908Z,122.43
2022-10-16T11:31:32.533Z,119.45
2022-10-16T11:32:27.608Z,119.54
2022-10-16T11:33:22.700Z,120.31
2022-10-16T11:34:17.799Z,121.45